Airfield :
LOGIN :

Register | Disclaimer

   EN    FR    IT 

 










Legend :    VFR   Marginal VFR   IFR   Intensive IFR   Very Intensive IFR
Visi :
Ceiling :
>= 8 km
>= 3000ft
5 to 8 km
1000 to 3000 ft
1500m to 5 km
500 to 1000 ft
800 to 1500m
200 to 500 ft
< 800m
< 200 ft
Symbols :   Thunderstorms  Fog  Heavy snow  Heavy precipitations  Wind > 20 kt
SIGMETs :     Misc.  Thunderstorms  Icing  Turbulence  Mountain Waves  Volcanic Ashes






- Airport Elevation : 461 ft
- IATA code : WIE


ETOU - Wiesbaden Army

EXPIRED METARs :
  • 031456Z AUTO 23006KT 9999 FEW090 29/09 A3002 RMK AO2 SLP164 T02850092 57008
  • 032256Z AUTO 35006KT 9999 FEW090 20/10 A3008 RMK AO2 SLP182 T01990097 403020128
  • 032156Z AUTO 34011KT 9999 CLR 21/11 A3007 RMK AO2 SLP179 T02060107 $

TAF AMD TAF ETOU
Valid from the 03 at 17:00 until the 04 at 18:00 UTC


031754Z 0317/0418 33012KT 9999 BKN050 QNH3005INS
BECMG 0400/0401 33009KT 9999 FEW040 QNH3011INS
BECMG 0414/0415 33006KT 9999 SCT050 QNH3011INS TX28/0412Z TN12/0404Z LAST NO AMDS AFT 0318 NEXT 0404



MET'MAP, your aeronautical weather chart ! - Copyright ORBIFLY December 2007 - Disclaimer

ORBIFLY MET'MAP TEAM :

Programming & Development : Alexandra Zaïnal
Original concept : Baudouin d'Aumeries
Technical & hardware support : Manuel Goepfert
Assistance : Marc-Olivier Méhu




SOURCES & CREDITS :

   NOAA